Time;durP1;ratioP1;P1;durP2;ratioP2;P2;SDS_P1;SDS_P2;PMS_P1;PMS_P2;Temp;Humidity;BMP_temperature;BMP_pressure;BME280_temperature;BME280_humidity;BME280_pressure;Samples;Min_cycle;Max_cycle;Signal;HPM_P1;HPM_P2
2022/06/11 00:00:54;;;;;;;26.40;16.25;;;;;;;19.94;50.04;100165.57;1725657;82;21046;-60
2022/06/11 00:03:22;;;;;;;28.85;17.05;;;;;;;19.94;50.22;100153.61;1726031;82;21049;-60
2022/06/11 00:05:51;;;;;;;25.82;16.02;;;;;;;19.87;50.21;100154.38;1726241;83;20986;-60
2022/06/11 00:08:21;;;;;;;27.00;16.52;;;;;;;19.87;50.32;100152.99;1725956;83;21085;-60
2022/06/11 00:10:52;;;;;;;26.80;16.37;;;;;;;19.90;50.19;100156.63;1723383;83;21547;-60
2022/06/11 00:13:22;;;;;;;24.10;15.72;;;;;;;19.92;50.06;100149.70;1722597;82;21066;-60
2022/06/11 00:15:51;;;;;;;26.95;16.57;;;;;;;19.97;49.82;100153.63;1722582;83;21466;-60
2022/06/11 00:18:23;;;;;;;30.25;16.70;;;;;;;19.95;49.69;100152.50;1722525;82;21047;-59
2022/06/11 00:20:52;;;;;;;27.55;15.45;;;;;;;19.85;49.94;100156.04;1722658;83;21070;-60
2022/06/11 00:23:20;;;;;;;27.80;15.32;;;;;;;19.76;50.03;100147.05;1690137;85;21027;-59
2022/06/11 00:25:49;;;;;;;24.45;14.65;;;;;;;19.67;50.12;100153.65;1689987;84;21075;-59
2022/06/11 00:28:19;;;;;;;27.20;16.02;;;;;;;19.59;50.29;100153.58;1690113;85;21069;-61
2022/06/11 00:30:48;;;;;;;24.00;15.40;;;;;;;19.55;50.50;100160.77;1690541;85;21487;-59
2022/06/11 00:33:17;;;;;;;26.68;15.70;;;;;;;19.51;50.65;100151.24;1690307;84;21039;-59
2022/06/11 00:35:46;;;;;;;24.07;15.58;;;;;;;19.48;50.72;100158.68;1690484;84;21047;-60
2022/06/11 00:38:17;;;;;;;22.27;14.78;;;;;;;19.47;50.79;100153.39;1690396;84;20996;-59
2022/06/11 00:40:50;;;;;;;24.35;15.00;;;;;;;19.46;50.63;100157.27;1722935;82;21031;-60
2022/06/11 00:43:24;;;;;;;25.15;14.58;;;;;;;19.43;50.68;100160.02;1690409;84;21047;-59
2022/06/11 00:46:35;;;;;;;24.35;14.53;;;;;;;19.40;50.82;100163.88;1690427;85;21443;-60
2022/06/11 00:49:27;;;;;;;23.42;14.45;;;;;;;19.37;50.96;100164.39;1722798;82;21105;-60
2022/06/11 00:52:02;;;;;;;22.05;14.55;;;;;;;19.25;51.11;100165.94;1690538;84;21023;-60
2022/06/11 00:54:31;;;;;;;25.68;15.28;;;;;;;19.18;51.42;100167.52;1690405;84;21240;-60
2022/06/11 00:57:00;;;;;;;24.02;14.87;;;;;;;19.14;51.44;100164.14;1690395;84;21039;-60
2022/06/11 00:59:37;;;;;;;20.37;14.68;;;;;;;19.11;51.66;100169.66;1690325;85;21098;-60
2022/06/11 01:02:07;;;;;;;26.05;14.95;;;;;;;19.10;51.72;100171.31;1722632;83;21043;-61
2022/06/11 01:04:47;;;;;;;27.00;14.98;;;;;;;19.09;51.96;100171.86;1690486;84;21035;-59
2022/06/11 01:07:24;;;;;;;23.65;14.83;;;;;;;19.08;52.07;100168.80;1722746;83;21078;-59
2022/06/11 01:10:10;;;;;;;22.25;14.20;;;;;;;19.12;52.11;100181.06;1722757;82;21070;-60
2022/06/11 01:13:09;;;;;;;22.80;15.63;;;;;;;19.09;52.06;100170.47;1690332;85;21011;-60
2022/06/11 01:15:54;;;;;;;25.30;15.18;;;;;;;19.08;52.11;100179.91;1722621;82;21725;-59
2022/06/11 01:18:50;;;;;;;23.35;15.13;;;;;;;19.08;52.36;100184.06;1690394;84;21447;-60
2022/06/11 01:21:47;;;;;;;25.90;14.90;;;;;;;19.06;52.58;100179.87;1722666;83;21550;-60
2022/06/11 01:25:10;;;;;;;25.77;14.53;;;;;;;18.93;52.81;100183.88;1690438;85;21031;-60
2022/06/11 01:28:07;;;;;;;22.98;13.65;;;;;;;18.91;52.90;100182.75;1722747;83;21486;-59
2022/06/11 01:30:43;;;;;;;19.80;13.93;;;;;;;18.92;52.91;100186.36;1722697;83;21055;-59
2022/06/11 01:33:39;;;;;;;22.30;14.13;;;;;;;18.87;53.13;100185.75;1722628;83;21027;-59
2022/06/11 01:36:13;;;;;;;22.82;14.90;;;;;;;18.85;53.20;100187.07;1722795;83;21050;-61
2022/06/11 01:39:00;;;;;;;21.42;13.78;;;;;;;18.84;53.29;100191.78;1722804;82;21043;-60
2022/06/11 01:41:51;;;;;;;22.77;13.78;;;;;;;18.84;53.31;100193.17;1722957;82;21015;-60
2022/06/11 01:44:31;;;;;;;22.25;14.50;;;;;;;18.84;53.45;100192.33;1722596;83;21030;-60
2022/06/11 01:47:01;;;;;;;23.35;14.68;;;;;;;18.83;53.55;100196.20;1690179;85;21487;-59
2022/06/11 01:49:36;;;;;;;24.82;15.03;;;;;;;18.82;53.67;100202.30;1722709;82;21055;-60
2022/06/11 01:52:50;;;;;;;24.90;14.98;;;;;;;18.79;53.77;100193.65;1690503;84;21055;-59
2022/06/11 01:55:39;;;;;;;25.37;14.25;;;;;;;18.78;53.93;100196.97;1690341;84;21071;-59
2022/06/11 01:59:03;;;;;;;21.82;13.43;;;;;;;18.82;53.95;100200.92;1669473;84;21047;-59
2022/06/11 02:01:49;;;;;;;22.42;14.65;;;;;;;18.79;53.97;100203.36;1722938;83;21062;-60
2022/06/11 02:04:41;;;;;;;23.22;14.20;;;;;;;18.68;54.28;100200.45;1690470;85;21082;-60
2022/06/11 02:07:23;;;;;;;22.22;14.15;;;;;;;18.60;54.54;100201.41;1722733;83;21481;-61
2022/06/11 02:10:25;;;;;;;32.30;17.87;;;;;;;18.60;54.54;100202.80;1644559;84;21078;-60
2022/06/11 02:13:02;;;;;;;22.35;14.53;;;;;;;18.63;54.48;100200.38;1700257;84;21051;-60
2022/06/11 02:15:46;;;;;;;22.30;15.03;;;;;;;18.66;54.62;100208.19;1700669;84;21075;-61
2022/06/11 02:18:18;;;;;;;22.77;14.25;;;;;;;18.67;54.72;100204.32;1700871;84;21022;-60
2022/06/11 02:20:57;;;;;;;26.17;14.23;;;;;;;18.66;54.71;100209.58;1700762;84;21051;-60
2022/06/11 02:23:29;;;;;;;;;;;;;;;18.65;54.72;100206.52;1701316;84;21149;-59
2022/06/11 02:26:00;;;;;;;20.72;13.72;;;;;;;18.65;54.81;100211.22;1700624;84;20148;-59
2022/06/11 02:28:33;;;;;;;25.35;13.90;;;;;;;18.65;54.79;100205.12;1700811;84;21079;-60
2022/06/11 02:31:04;;;;;;;20.00;13.75;;;;;;;18.68;54.71;100220.42;1700604;83;21513;-60
2022/06/11 02:33:34;;;;;;;23.38;13.35;;;;;;;18.70;54.67;100216.84;1700454;83;21521;-59
2022/06/11 02:36:17;;;;;;;23.27;13.62;;;;;;;18.70;54.69;100216.84;1700708;84;21498;-59
2022/06/11 02:38:46;;;;;;;21.37;13.65;;;;;;;18.72;54.78;100217.98;1668411;86;21070;-60
2022/06/11 02:41:20;;;;;;;20.68;12.90;;;;;;;18.74;54.70;100215.23;1700779;83;21078;-59
2022/06/11 02:43:51;;;;;;;20.30;13.05;;;;;;;18.74;54.77;100222.18;1700514;84;21086;-60
2022/06/11 02:49:12;;;;;;;23.05;13.95;;;;;;;18.72;55.23;100221.59;1700617;83;21046;-59
2022/06/11 02:51:42;;;;;;;25.95;13.35;;;;;;;18.72;55.45;100216.59;1700495;84;21050;-58
2022/06/11 02:54:11;;;;;;;23.22;14.28;;;;;;;18.68;55.53;100220.42;1700488;84;21027;-60
2022/06/11 02:56:41;;;;;;;20.27;13.30;;;;;;;18.71;55.62;100226.02;1700768;84;21042;-59
2022/06/11 02:59:09;;;;;;;23.57;13.85;;;;;;;18.72;55.64;100220.20;1700630;84;21133;-60
2022/06/11 03:01:39;;;;;;;23.10;13.68;;;;;;;18.77;55.41;100222.21;1700610;84;21086;-59
2022/06/11 03:04:08;;;;;;;20.32;13.65;;;;;;;18.80;55.75;100221.70;1700332;84;21039;-59
2022/06/11 03:06:40;;;;;;;23.55;13.68;;;;;;;18.83;55.49;100223.97;1700675;84;21065;-61
2022/06/11 03:09:11;;;;;;;25.40;13.48;;;;;;;18.84;55.80;100223.70;1700409;84;21106;-59
2022/06/11 03:11:41;;;;;;;30.97;14.33;;;;;;;18.87;55.85;100230.72;1649143;85;21106;-59
2022/06/11 03:14:10;;;;;;;28.45;13.90;;;;;;;18.92;55.84;100231.62;1649233;87;21043;-59
2022/06/11 03:16:39;;;;;;;23.47;13.80;;;;;;;18.95;56.11;100224.72;1649102;87;21063;-59
2022/06/11 03:19:08;;;;;;;24.20;14.00;;;;;;;18.95;56.32;100226.11;1649309;87;21124;-60
2022/06/11 03:21:37;;;;;;;30.60;14.55;;;;;;;18.97;56.42;100230.30;1648952;87;21503;-60
2022/06/11 03:24:07;;;;;;;25.17;14.05;;;;;;;19.00;56.41;100224.78;1649081;87;21087;-59
2022/06/11 03:26:36;;;;;;;24.98;14.07;;;;;;;19.05;56.28;100225.40;1649352;87;21087;-58
2022/06/11 03:29:04;;;;;;;23.55;14.45;;;;;;;19.08;56.56;100232.67;1657661;84;21071;-59
2022/06/11 03:31:33;;;;;;;26.17;14.38;;;;;;;19.10;56.45;100229.09;1700782;83;21051;-59
2022/06/11 03:34:03;;;;;;;25.92;13.85;;;;;;;19.15;55.94;100224.98;1700882;84;21090;-58
2022/06/11 03:36:34;;;;;;;21.10;13.30;;;;;;;19.22;55.81;100226.17;1700839;84;21540;-58
2022/06/11 03:39:03;;;;;;;23.52;14.23;;;;;;;19.27;55.47;100232.63;1700837;83;21055;-59
2022/06/11 03:41:32;;;;;;;21.52;13.45;;;;;;;19.31;55.46;100232.41;1700815;84;21510;-59
2022/06/11 03:44:01;;;;;;;26.65;14.23;;;;;;;19.38;55.46;100243.87;1700831;83;21078;-60
2022/06/11 03:46:31;;;;;;;28.23;14.50;;;;;;;19.42;55.53;100236.69;1700814;83;21454;-60
2022/06/11 03:49:01;;;;;;;22.35;13.85;;;;;;;19.45;55.59;100234.78;1701019;83;21119;-60
2022/06/11 03:51:29;;;;;;;21.45;13.70;;;;;;;19.49;55.68;100238.17;1700867;84;21041;-60
2022/06/11 03:54:00;;;;;;;20.15;13.55;;;;;;;19.52;55.59;100227.98;1700735;84;21035;-60
2022/06/11 03:56:29;;;;;;;22.42;14.40;;;;;;;19.58;55.30;100233.05;1700807;84;20998;-58
2022/06/11 03:58:57;;;;;;;23.57;14.18;;;;;;;19.63;55.19;100234.50;1701021;84;21062;-60
2022/06/11 04:01:28;;;;;;;24.32;13.95;;;;;;;19.72;54.93;100238.48;1701020;83;21040;-59
2022/06/11 04:04:02;;;;;;;24.37;14.83;;;;;;;19.81;54.75;100236.91;1700874;84;21087;-58
2022/06/11 04:06:41;;;;;;;23.95;14.35;;;;;;;19.89;54.79;100239.22;1700891;84;21541;-59
2022/06/11 04:09:16;;;;;;;28.12;14.07;;;;;;;19.96;54.66;100239.00;1700714;83;21008;-59
2022/06/11 04:11:45;;;;;;;25.72;14.65;;;;;;;20.04;54.58;100244.09;1711716;83;21037;-59
2022/06/11 04:14:14;;;;;;;23.75;13.70;;;;;;;20.11;54.36;100240.53;1720709;83;21504;-59
2022/06/11 04:16:54;;;;;;;25.40;13.68;;;;;;;20.19;54.10;100240.63;1720944;83;21038;-60
2022/06/11 04:19:30;;;;;;;26.77;15.88;;;;;;;20.27;53.96;100242.93;1720576;83;21524;-61
2022/06/11 04:22:05;;;;;;;23.45;13.83;;;;;;;20.36;53.73;100239.10;1720718;83;21014;-61
2022/06/11 04:24:35;;;;;;;26.37;15.08;;;;;;;20.42;53.85;100238.91;1721334;83;21458;-60
2022/06/11 04:27:07;;;;;;;35.52;14.70;;;;;;;20.52;53.39;100243.16;1720932;82;21003;-60
2022/06/11 04:29:39;;;;;;;23.60;13.75;;;;;;;20.63;52.75;100237.66;1721200;83;21077;-60
2022/06/11 04:32:10;;;;;;;30.30;14.58;;;;;;;20.74;51.66;100243.58;1720981;82;20994;-59
2022/06/11 04:34:39;;;;;;;34.20;13.53;;;;;;;20.88;51.22;100247.05;1720784;83;21442;-60
2022/06/11 04:37:13;;;;;;;22.35;12.58;;;;;;;21.00;51.57;100249.63;1721108;83;21057;-59
2022/06/11 04:39:44;;;;;;;28.85;12.82;;;;;;;21.10;51.03;100239.92;1721093;83;21077;-60
2022/06/11 04:42:13;;;;;;;20.12;11.80;;;;;;;21.22;50.37;100245.27;1720522;82;21089;-60
2022/06/11 04:44:43;;;;;;;26.60;11.93;;;;;;;21.35;49.99;100250.93;1720850;83;21014;-60
2022/06/11 04:47:14;;;;;;;29.48;12.88;;;;;;;21.45;49.59;100244.84;1720911;83;21030;-60
2022/06/11 04:49:43;;;;;;;20.32;11.48;;;;;;;21.59;49.08;100249.38;1720958;83;21434;-58
2022/06/11 04:52:13;;;;;;;19.70;10.98;;;;;;;21.73;48.40;100244.11;1720535;83;21010;-59
2022/06/11 04:54:44;;;;;;;18.57;10.10;;;;;;;21.92;47.42;100245.83;1658894;86;21071;-59
2022/06/11 04:57:16;;;;;;;15.63;9.65;;;;;;;22.17;46.47;100238.94;1658838;86;21043;-61
2022/06/11 04:59:45;;;;;;;16.50;9.28;;;;;;;22.50;45.40;100239.48;1658525;86;21126;-60
2022/06/11 05:02:14;;;;;;;16.62;9.43;;;;;;;22.86;44.51;100241.17;1658948;86;21085;-61
2022/06/11 05:04:43;;;;;;;17.75;8.15;;;;;;;23.27;43.00;100234.89;1658890;86;21111;-59
2022/06/11 05:07:12;;;;;;;14.18;8.00;;;;;;;23.71;41.90;100245.36;1658909;86;21122;-60
2022/06/11 05:09:42;;;;;;;18.50;7.95;;;;;;;24.15;40.55;100243.98;1658978;86;21090;-60
2022/06/11 05:12:12;;;;;;;14.68;7.70;;;;;;;24.59;39.71;100244.47;1663960;86;21222;-60
2022/06/11 05:14:42;;;;;;;22.17;8.38;;;;;;;25.03;38.58;100242.12;1667459;85;21038;-60
2022/06/11 05:17:11;;;;;;;14.95;8.13;;;;;;;25.44;36.94;100250.34;1667212;86;21489;-59
2022/06/11 05:19:42;;;;;;;14.58;7.30;;;;;;;25.77;36.51;100250.49;1709577;83;21062;-59
2022/06/11 05:22:12;;;;;;;16.80;7.75;;;;;;;26.13;35.95;100247.45;1699949;84;21026;-60
2022/06/11 05:24:43;;;;;;;13.30;7.78;;;;;;;26.52;34.42;100243.47;1732574;83;21052;-60
2022/06/11 05:27:16;;;;;;;20.52;8.75;;;;;;;26.87;33.90;100251.86;1699884;83;21023;-60
2022/06/11 05:29:56;;;;;;;15.13;7.92;;;;;;;27.24;32.97;100252.28;1699853;84;21058;-60
2022/06/11 05:32:30;;;;;;;23.47;9.20;;;;;;;27.88;31.74;100254.61;1699989;84;21079;-60
2022/06/11 05:35:00;;;;;;;14.28;8.33;;;;;;;27.88;31.74;100254.61;1732636;83;21089;-61
2022/06/11 05:37:30;;;;;;;16.17;8.73;;;;;;;28.12;30.72;100256.34;1640411;87;21114;-59
2022/06/11 05:40:03;;;;;;;16.05;8.50;;;;;;;28.34;30.38;100254.98;1640259;86;21490;-61
2022/06/11 05:42:32;;;;;;;15.45;8.45;;;;;;;28.65;30.11;100254.50;1640366;86;21493;-59
2022/06/11 05:45:01;;;;;;;13.08;8.48;;;;;;;28.93;30.13;100251.53;1640344;86;21086;-60
2022/06/11 05:47:30;;;;;;;15.78;8.58;;;;;;;29.22;29.83;100257.48;1640478;87;21073;-60
2022/06/11 05:50:00;;;;;;;14.13;8.13;;;;;;;29.48;29.03;100253.39;1640099;86;21081;-61
2022/06/11 05:52:34;;;;;;;12.65;8.08;;;;;;;29.71;28.14;100256.94;1619011;87;21086;-61
2022/06/11 05:55:04;;;;;;;14.75;8.18;;;;;;;29.86;27.99;100251.39;1663327;83;21038;-61
2022/06/11 05:57:33;;;;;;;23.07;9.08;;;;;;;29.97;27.56;100246.53;1732589;82;21030;-61
2022/06/11 06:00:06;;;;;;;16.67;8.45;;;;;;;30.15;27.49;100254.47;1699764;84;21035;-60
2022/06/11 06:02:40;;;;;;;12.60;8.18;;;;;;;30.35;26.69;100250.14;1732284;83;21034;-60
2022/06/11 06:05:09;;;;;;;18.27;8.73;;;;;;;30.58;25.86;100250.23;1699639;83;21067;-60
2022/06/11 06:07:39;;;;;;;16.32;8.48;;;;;;;30.85;25.19;100241.13;1699463;84;21026;-60
2022/06/11 06:10:10;;;;;;;15.32;7.80;;;;;;;31.12;24.99;100247.77;1732809;83;21078;-59
2022/06/11 06:12:38;;;;;;;16.42;7.83;;;;;;;31.40;24.36;100246.79;1695388;84;21339;-61
2022/06/11 06:15:15;;;;;;;14.73;8.50;;;;;;;31.62;23.51;100246.25;1693191;85;21086;-60
2022/06/11 06:17:46;;;;;;;13.55;8.30;;;;;;;31.75;23.09;100247.45;1693175;83;21086;-61
2022/06/11 06:20:15;;;;;;;14.50;9.55;;;;;;;31.93;22.78;100241.69;1698168;84;21059;-60
2022/06/11 06:22:44;;;;;;;19.05;9.93;;;;;;;32.08;22.32;100244.73;1692813;84;21468;-61
2022/06/11 06:25:16;;;;;;;17.30;9.98;;;;;;;32.25;22.39;100248.04;1693125;85;21075;-60
2022/06/11 06:27:45;;;;;;;14.13;9.83;;;;;;;32.31;22.69;100240.98;1693365;84;21513;-60
2022/06/11 06:30:17;;;;;;;18.07;10.70;;;;;;;32.42;22.85;100245.63;1692990;84;21513;-60
2022/06/11 06:32:46;;;;;;;19.92;11.78;;;;;;;32.61;22.86;100243.14;1693240;85;21579;-61
2022/06/11 06:35:15;;;;;;;19.30;11.57;;;;;;;32.67;21.37;100236.66;1700960;83;21027;-60
2022/06/11 06:37:44;;;;;;;49.58;17.73;;;;;;;32.47;22.00;100246.25;1701194;84;21019;-59
2022/06/11 06:40:13;;;;;;;19.17;13.40;;;;;;;32.52;22.03;100244.41;1700962;84;21574;-60
2022/06/11 06:42:42;;;;;;;23.67;14.28;;;;;;;32.68;21.71;100244.81;1700939;84;21003;-60
2022/06/11 06:45:11;;;;;;;20.37;13.80;;;;;;;32.88;21.03;100244.55;1701120;83;21451;-60
2022/06/11 06:47:40;;;;;;;16.80;12.05;;;;;;;33.04;20.94;100251.79;1700768;84;21007;-60
2022/06/11 06:50:10;;;;;;;18.35;12.88;;;;;;;33.20;19.92;100245.69;1700757;84;21074;-59
2022/06/11 06:52:38;;;;;;;27.37;18.37;;;;;;;33.29;19.58;100247.00;1700790;84;21035;-60
2022/06/11 06:55:09;;;;;;;22.82;14.45;;;;;;;33.44;19.64;100244.91;1700289;84;21062;-60
2022/06/11 06:57:39;;;;;;;19.80;13.80;;;;;;;33.62;19.82;100248.33;1700614;84;21086;-61
2022/06/11 07:00:11;;;;;;;24.65;13.85;;;;;;;33.68;20.28;100250.57;1700696;83;21043;-60
2022/06/11 07:02:40;;;;;;;18.85;12.50;;;;;;;33.77;19.70;100243.93;1700800;83;21103;-60
2022/06/11 07:05:12;;;;;;;21.35;13.00;;;;;;;33.77;19.46;100251.86;1700742;83;21006;-59
2022/06/11 07:07:41;;;;;;;21.45;12.73;;;;;;;33.86;19.41;100254.05;1701024;83;21487;-61
2022/06/11 07:10:10;;;;;;;22.27;14.18;;;;;;;34.05;19.03;100259.69;1700894;83;21035;-60
2022/06/11 07:12:39;;;;;;;23.18;13.95;;;;;;;34.22;18.77;100254.55;1711017;83;21454;-60
2022/06/11 07:15:10;;;;;;;21.45;12.78;;;;;;;34.39;19.01;100261.16;1720914;83;21034;-60
2022/06/11 07:17:44;;;;;;;19.90;12.47;;;;;;;34.49;18.03;100256.41;1720860;83;21523;-60
2022/06/11 07:20:19;;;;;;;27.05;13.13;;;;;;;34.37;18.93;100256.42;1720614;83;20998;-61
2022/06/11 07:23:02;;;;;;;19.48;12.47;;;;;;;34.39;18.08;100261.16;1720649;83;21090;-61
2022/06/11 07:25:32;;;;;;;17.67;12.05;;;;;;;34.55;17.51;100260.05;1720870;83;21050;-61
2022/06/11 07:28:05;;;;;;;23.83;15.53;;;;;;;34.63;17.82;100256.81;1720265;83;21010;-61
2022/06/11 07:30:38;;;;;;;22.27;14.10;;;;;;;34.70;17.92;100255.59;1720692;83;21014;-60
2022/06/11 07:33:11;;;;;;;20.95;14.75;;;;;;;34.88;17.59;100258.36;1721180;83;21053;-60
2022/06/11 07:35:41;;;;;;;15.43;10.72;;;;;;;34.88;17.78;100249.82;1720708;82;21101;-61
2022/06/11 07:38:12;;;;;;;16.37;11.95;;;;;;;34.94;17.36;100250.38;1720937;82;21046;-59
2022/06/11 07:40:42;;;;;;;18.80;11.93;;;;;;;35.09;17.19;100248.74;1721119;82;21014;-60
2022/06/11 07:43:11;;;;;;;16.12;10.05;;;;;;;35.11;17.22;100247.78;1721017;83;21026;-61
2022/06/11 07:45:43;;;;;;;14.80;10.68;;;;;;;35.11;16.92;100246.35;1720820;83;21010;-60
2022/06/11 07:48:12;;;;;;;15.65;10.98;;;;;;;35.10;16.86;100246.95;1720782;82;21046;-60
2022/06/11 07:50:45;;;;;;;12.30;7.25;;;;;;;35.11;17.18;100252.05;1721053;83;21022;-61
2022/06/11 07:53:19;;;;;;;11.93;7.30;;;;;;;35.30;16.75;100248.50;1710054;82;21037;-60
2022/06/11 07:55:50;;;;;;;9.55;6.62;;;;;;;35.45;16.64;100251.38;1713723;83;21035;-62
2022/06/11 07:58:23;;;;;;;10.70;6.05;;;;;;;35.51;16.49;100256.19;1703526;83;21443;-60
2022/06/11 08:00:52;;;;;;;9.28;5.78;;;;;;;35.60;16.48;100252.55;1720696;83;21483;-61
2022/06/11 08:03:21;;;;;;;6.22;4.22;;;;;;;35.72;15.88;100241.03;1722639;82;21057;-61
2022/06/11 08:05:51;;;;;;;6.47;3.75;;;;;;;35.76;15.82;100243.96;1723551;82;21060;-61
2022/06/11 08:08:20;;;;;;;6.22;3.67;;;;;;;35.82;15.36;100243.97;1723362;82;21040;-60
2022/06/11 08:10:51;;;;;;;4.20;3.10;;;;;;;35.75;15.09;100246.59;1722540;82;21422;-59
2022/06/11 08:13:20;;;;;;;5.53;2.83;;;;;;;35.68;15.26;100237.86;1734965;82;21086;-59
2022/06/11 08:15:50;;;;;;;4.35;2.40;;;;;;;35.71;14.98;100245.67;1742797;82;21054;-60
2022/06/11 08:18:21;;;;;;;4.70;2.42;;;;;;;35.74;15.12;100240.66;1742603;81;21059;-61
2022/06/11 08:20:51;;;;;;;9.73;4.40;;;;;;;35.87;14.99;100240.22;1742654;81;21062;-61
2022/06/11 08:23:21;;;;;;;11.00;6.85;;;;;;;36.01;15.24;100239.72;1742442;82;21093;-60
2022/06/11 08:25:52;;;;;;;12.25;7.22;;;;;;;36.16;15.48;100242.29;1742680;82;21054;-61
2022/06/11 08:28:21;;;;;;;13.38;8.03;;;;;;;36.11;15.66;100239.73;1745052;82;21032;-60
2022/06/11 08:30:50;;;;;;;14.65;8.30;;;;;;;36.05;15.77;100242.05;1747566;82;21430;-60
2022/06/11 08:33:19;;;;;;;9.30;7.10;;;;;;;35.88;16.01;100236.77;1747372;82;21048;-62
2022/06/11 08:35:48;;;;;;;11.40;8.13;;;;;;;35.88;16.04;100236.17;1747420;82;21024;-62
2022/06/11 08:38:17;;;;;;;12.68;8.80;;;;;;;35.95;16.02;100238.36;1747759;82;21075;-60
2022/06/11 08:40:50;;;;;;;14.38;8.55;;;;;;;35.93;16.38;100242.78;1747791;82;21111;-60
2022/06/11 08:43:37;;;;;;;12.33;8.05;;;;;;;36.00;16.19;100238.67;1730042;82;21078;-62
2022/06/11 08:46:15;;;;;;;11.12;7.85;;;;;;;36.09;16.11;100227.27;1712192;84;21054;-62
2022/06/11 08:49:11;;;;;;;9.40;7.10;;;;;;;36.18;15.99;100229.30;1712163;84;21082;-61
2022/06/11 08:51:45;;;;;;;11.70;7.53;;;;;;;36.16;15.89;100224.56;1676001;85;21112;-61
2022/06/11 08:54:25;;;;;;;12.03;6.62;;;;;;;36.10;15.88;100215.25;1684423;84;21028;-61
2022/06/11 08:57:32;;;;;;;11.97;7.22;;;;;;;36.09;15.87;100222.98;1695562;84;21518;-60
2022/06/11 09:00:24;;;;;;;14.98;7.17;;;;;;;36.00;16.04;100220.13;1695749;84;21047;-60
2022/06/11 09:03:21;;;;;;;10.98;7.35;;;;;;;36.00;15.63;100218.09;1695085;84;21090;-61
2022/06/11 09:06:09;;;;;;;8.80;6.75;;;;;;;35.68;16.01;100213.63;1692052;84;21050;-61
2022/06/11 09:09:11;;;;;;;11.87;7.40;;;;;;;35.39;16.32;100221.50;1695303;84;21034;-61
2022/06/11 09:12:07;;;;;;;9.20;7.17;;;;;;;35.24;16.49;100216.61;1632502;87;21440;-61
2022/06/11 09:15:20;;;;;;;10.78;6.78;;;;;;;35.19;16.44;100212.02;1640203;87;21078;-61
2022/06/11 09:18:23;;;;;;;10.15;7.17;;;;;;;35.08;16.44;100215.76;1666549;85;21066;-62
2022/06/11 09:21:19;;;;;;;13.68;7.70;;;;;;;34.85;16.80;100213.54;1666670;85;21100;-61
2022/06/11 09:24:13;;;;;;;12.07;7.58;;;;;;;34.69;17.09;100208.39;1666727;86;21519;-59
2022/06/11 09:26:51;;;;;;;11.00;7.70;;;;;;;34.59;17.35;100204.66;1666760;86;21061;-62
2022/06/11 09:29:31;;;;;;;12.75;7.67;;;;;;;34.55;17.43;100209.42;1683670;83;21058;-61
2022/06/11 09:32:15;;;;;;;15.10;7.85;;;;;;;34.50;17.47;100206.84;1731850;83;21094;-60
2022/06/11 09:34:55;;;;;;;11.20;7.65;;;;;;;34.41;17.49;100200.45;1731884;83;21077;-61
2022/06/11 09:38:02;;;;;;;10.40;7.30;;;;;;;34.34;17.29;100203.33;1728417;82;21031;-60
2022/06/11 09:40:50;;;;;;;14.05;7.20;;;;;;;34.27;17.46;100198.82;1731874;83;21022;-61
2022/06/11 09:44:05;;;;;;;11.10;6.75;;;;;;;34.22;17.79;100196.23;1731924;83;21065;-62
2022/06/11 09:46:46;;;;;;;10.95;7.08;;;;;;;34.23;17.66;100197.89;1732091;83;21030;-61
2022/06/11 09:49:21;;;;;;;9.03;6.28;;;;;;;34.13;17.26;100195.56;1731796;82;21617;-63
2022/06/11 09:52:35;;;;;;;12.40;6.62;;;;;;;34.00;17.44;100184.83;1732099;83;21045;-62
2022/06/11 09:55:43;;;;;;;12.53;7.25;;;;;;;33.95;17.80;100189.34;1732219;83;21518;-61
2022/06/11 09:58:35;;;;;;;12.90;8.53;;;;;;;33.84;17.59;100184.52;1732641;83;20998;-62
2022/06/11 10:01:07;;;;;;;10.85;6.70;;;;;;;33.64;18.00;100180.00;1719834;83;21066;-61
2022/06/11 10:03:44;;;;;;;11.50;6.70;;;;;;;33.52;18.11;100182.86;1749752;82;21023;-62
2022/06/11 10:06:17;;;;;;;12.45;7.17;;;;;;;33.43;18.23;100187.84;1750301;81;21106;-62
2022/06/11 10:09:02;;;;;;;11.85;7.15;;;;;;;33.33;18.09;100180.63;1750184;82;21110;-62
2022/06/11 10:11:51;;;;;;;;;;;;;;;33.23;18.43;100181.08;1752551;81;21516;-63
2022/06/11 10:14:32;;;;;;;11.33;7.25;;;;;;;33.28;18.61;100177.17;1699919;83;20486;-63
2022/06/11 10:17:27;;;;;;;15.55;9.30;;;;;;;33.32;18.37;100180.99;1699353;84;21113;-61
2022/06/11 10:20:07;;;;;;;11.10;6.78;;;;;;;33.20;18.26;100176.11;1699190;84;21009;-61
2022/06/11 10:22:59;;;;;;;11.43;6.50;;;;;;;32.94;18.61;100179.27;1699185;84;21073;-63
2022/06/11 10:25:53;;;;;;;12.43;6.87;;;;;;;32.75;18.77;100174.72;1699060;84;21057;-63
2022/06/11 10:28:36;;;;;;;11.80;7.67;;;;;;;32.69;19.09;100177.55;1699014;84;21085;-63
2022/06/11 10:31:13;;;;;;;10.28;7.30;;;;;;;32.67;19.08;100168.55;1698881;84;21029;-63
2022/06/11 10:34:11;;;;;;;11.45;6.55;;;;;;;32.72;18.92;100169.75;1699078;84;21492;-63
2022/06/11 10:37:12;;;;;;;11.65;6.80;;;;;;;32.83;18.54;100173.81;1699092;84;21457;-64
2022/06/11 10:39:48;;;;;;;11.83;6.30;;;;;;;32.86;18.54;100168.02;1675153;85;21114;-63
2022/06/11 10:42:41;;;;;;;11.18;6.45;;;;;;;32.88;18.42;100166.48;1674972;85;21063;-63
2022/06/11 10:45:16;;;;;;;13.08;6.55;;;;;;;32.87;18.56;100162.58;1680850;84;21515;-62
2022/06/11 10:47:52;;;;;;;10.38;6.62;;;;;;;32.81;18.47;100156.91;1699285;84;20998;-63
2022/06/11 10:50:30;;;;;;;10.73;7.43;;;;;;;32.76;18.49;100155.09;1699278;84;21053;-62
2022/06/11 10:53:31;;;;;;;10.60;7.33;;;;;;;32.75;18.65;100163.36;1671902;84;21112;-63
2022/06/11 10:56:06;;;;;;;11.18;6.85;;;;;;;32.74;18.83;100158.28;1711080;82;21046;-63
2022/06/11 10:58:49;;;;;;;9.45;6.72;;;;;;;32.77;18.53;100155.33;1727990;83;21045;-63
2022/06/11 11:01:25;;;;;;;14.50;6.67;;;;;;;32.71;18.57;100153.90;1728716;82;20994;-63
2022/06/11 11:04:17;;;;;;;10.13;6.70;;;;;;;32.69;18.61;100148.58;1745691;82;21438;-63
2022/06/11 11:06:46;;;;;;;9.03;6.25;;;;;;;32.63;18.80;100142.06;1722935;82;21035;-62
2022/06/11 11:09:24;;;;;;;11.40;6.42;;;;;;;32.58;18.69;100150.80;1745857;82;21055;-61
2022/06/11 11:11:58;;;;;;;7.72;5.92;;;;;;;32.48;18.65;100147.20;1745586;82;21074;-62
2022/06/11 11:14:39;;;;;;;8.93;5.90;;;;;;;32.44;18.40;100144.83;1741604;82;21070;-62
2022/06/11 11:17:20;;;;;;;13.75;6.80;;;;;;;32.39;18.55;100142.22;1740382;82;21050;-63
2022/06/11 11:22:41;;;;;;;11.15;6.30;;;;;;;32.44;18.57;100134.08;1740375;82;21063;-65
2022/06/11 11:25:16;;;;;;;21.33;8.38;;;;;;;32.46;18.97;100133.96;1704689;83;21459;-63
2022/06/11 11:27:46;;;;;;;8.63;6.10;;;;;;;32.46;18.83;100127.46;1740001;82;20995;-63
2022/06/11 11:30:38;;;;;;;10.30;6.62;;;;;;;32.39;18.50;100132.88;1740124;82;21423;-62
2022/06/11 11:33:32;;;;;;;8.80;6.20;;;;;;;32.25;18.80;100126.11;1740236;82;21982;-63
2022/06/11 11:36:21;;;;;;;12.00;6.70;;;;;;;32.15;18.84;100128.77;1740163;82;21019;-62
2022/06/11 11:39:16;;;;;;;11.65;7.33;;;;;;;32.14;18.88;100124.86;1704429;84;21032;-64
2022/06/11 11:42:10;;;;;;;9.23;6.30;;;;;;;32.18;18.72;100126.41;1740400;82;21510;-63
2022/06/11 11:44:51;;;;;;;11.68;6.70;;;;;;;32.11;18.47;100121.30;1740252;82;21047;-62
2022/06/11 11:47:34;;;;;;;9.73;6.25;;;;;;;31.98;18.76;100118.19;1740428;82;21027;-62
2022/06/11 11:50:24;;;;;;;10.15;6.50;;;;;;;31.89;18.84;100115.44;1662465;85;21114;-63
2022/06/11 11:52:57;;;;;;;7.87;5.95;;;;;;;31.80;18.92;100123.98;1662475;85;21090;-63
2022/06/11 11:55:31;;;;;;;9.53;6.00;;;;;;;31.71;19.10;100117.56;1673357;84;21055;-62
2022/06/11 11:58:05;;;;;;;11.28;5.85;;;;;;;31.70;19.18;100114.48;1690298;84;21040;-63
2022/06/11 12:01:04;;;;;;;10.00;6.37;;;;;;;31.76;18.76;100115.94;1690110;84;21071;-62
2022/06/11 12:03:51;;;;;;;10.53;6.80;;;;;;;31.77;18.64;100111.09;1682921;85;21513;-62